sensor_id;sensor_type;location;lat;lon;timestamp;temperature;humidity
7842;DHT22;3966;51.052;13.820;2022-09-25T00:00:14;13.70;99.90
7842;DHT22;3966;51.052;13.820;2022-09-25T00:02:39;13.70;99.90
7842;DHT22;3966;51.052;13.820;2022-09-25T00:05:05;13.40;99.90
7842;DHT22;3966;51.052;13.820;2022-09-25T00:07:31;12.90;99.90
7842;DHT22;3966;51.052;13.820;2022-09-25T00:09:56;12.20;99.90
7842;DHT22;3966;51.052;13.820;2022-09-25T00:12:22;12.10;99.90
7842;DHT22;3966;51.052;13.820;2022-09-25T00:14:51;12.50;99.90
7842;DHT22;3966;51.052;13.820;2022-09-25T00:17:17;12.80;99.90
7842;DHT22;3966;51.052;13.820;2022-09-25T00:19:42;12.70;99.90
7842;DHT22;3966;51.052;13.820;2022-09-25T00:22:18;12.50;99.90
7842;DHT22;3966;51.052;13.820;2022-09-25T00:24:44;12.40;99.90
7842;DHT22;3966;51.052;13.820;2022-09-25T00:27:10;12.30;99.90
7842;DHT22;3966;51.052;13.820;2022-09-25T00:29:36;12.60;99.90
7842;DHT22;3966;51.052;13.820;2022-09-25T00:32:03;12.90;99.90
7842;DHT22;3966;51.052;13.820;2022-09-25T00:34:29;13.10;99.90
7842;DHT22;3966;51.052;13.820;2022-09-25T00:36:55;13.30;99.90
7842;DHT22;3966;51.052;13.820;2022-09-25T00:39:21;13.20;99.90
7842;DHT22;3966;51.052;13.820;2022-09-25T00:41:46;13.00;99.90
7842;DHT22;3966;51.052;13.820;2022-09-25T00:44:49;12.60;99.90
7842;DHT22;3966;51.052;13.820;2022-09-25T00:47:30;12.70;99.90
7842;DHT22;3966;51.052;13.820;2022-09-25T00:49:58;12.90;99.90
7842;DHT22;3966;51.052;13.820;2022-09-25T00:52:25;13.10;99.90
7842;DHT22;3966;51.052;13.820;2022-09-25T00:54:59;13.30;99.90
7842;DHT22;3966;51.052;13.820;2022-09-25T00:57:28;13.10;99.90
7842;DHT22;3966;51.052;13.820;2022-09-25T01:00:00;13.00;99.90
7842;DHT22;3966;51.052;13.820;2022-09-25T01:02:29;12.70;99.90
7842;DHT22;3966;51.052;13.820;2022-09-25T01:05:04;12.10;99.90
7842;DHT22;3966;51.052;13.820;2022-09-25T01:07:37;12.20;99.90
7842;DHT22;3966;51.052;13.820;2022-09-25T01:10:04;12.30;99.90
7842;DHT22;3966;51.052;13.820;2022-09-25T01:12:34;12.40;99.90
7842;DHT22;3966;51.052;13.820;2022-09-25T01:15:06;12.30;99.90
7842;DHT22;3966;51.052;13.820;2022-09-25T01:26:11;13.20;99.90
7842;DHT22;3966;51.052;13.820;2022-09-25T01:31:53;12.90;99.90
7842;DHT22;3966;51.052;13.820;2022-09-25T01:34:39;13.10;99.90
7842;DHT22;3966;51.052;13.820;2022-09-25T01:37:12;12.90;99.90
7842;DHT22;3966;51.052;13.820;2022-09-25T01:39:42;12.80;99.90
7842;DHT22;3966;51.052;13.820;2022-09-25T01:42:19;12.70;99.90
7842;DHT22;3966;51.052;13.820;2022-09-25T01:45:02;12.60;99.90
7842;DHT22;3966;51.052;13.820;2022-09-25T01:47:30;12.90;99.90
7842;DHT22;3966;51.052;13.820;2022-09-25T01:49:59;13.10;99.90
7842;DHT22;3966;51.052;13.820;2022-09-25T01:52:31;12.90;99.90
7842;DHT22;3966;51.052;13.820;2022-09-25T01:55:14;12.70;99.90
7842;DHT22;3966;51.052;13.820;2022-09-25T01:58:03;12.60;99.90
7842;DHT22;3966;51.052;13.820;2022-09-25T02:00:33;12.50;99.90
7842;DHT22;3966;51.052;13.820;2022-09-25T02:03:11;12.60;99.90
7842;DHT22;3966;51.052;13.820;2022-09-25T02:05:44;12.90;99.90
7842;DHT22;3966;51.052;13.820;2022-09-25T02:08:19;12.90;99.90
7842;DHT22;3966;51.052;13.820;2022-09-25T02:10:55;12.80;99.90
7842;DHT22;3966;51.052;13.820;2022-09-25T02:13:23;13.00;99.90
7842;DHT22;3966;51.052;13.820;2022-09-25T02:16:01;13.00;99.90
7842;DHT22;3966;51.052;13.820;2022-09-25T02:18:28;13.20;99.90
7842;DHT22;3966;51.052;13.820;2022-09-25T02:21:33;13.00;99.90
7842;DHT22;3966;51.052;13.820;2022-09-25T02:24:22;12.80;99.90
7842;DHT22;3966;51.052;13.820;2022-09-25T02:26:49;13.00;99.90
7842;DHT22;3966;51.052;13.820;2022-09-25T02:29:15;12.50;99.90
7842;DHT22;3966;51.052;13.820;2022-09-25T02:31:53;12.80;99.90
7842;DHT22;3966;51.052;13.820;2022-09-25T02:34:21;12.90;99.90
7842;DHT22;3966;51.052;13.820;2022-09-25T02:36:47;12.90;99.90
7842;DHT22;3966;51.052;13.820;2022-09-25T02:39:18;12.80;99.90
7842;DHT22;3966;51.052;13.820;2022-09-25T02:44:59;13.20;99.90
7842;DHT22;3966;51.052;13.820;2022-09-25T02:47:34;12.70;99.90
7842;DHT22;3966;51.052;13.820;2022-09-25T02:53:08;13.00;99.90
7842;DHT22;3966;51.052;13.820;2022-09-25T02:55:56;13.10;99.90
7842;DHT22;3966;51.052;13.820;2022-09-25T02:58:33;13.20;99.90
7842;DHT22;3966;51.052;13.820;2022-09-25T03:01:03;13.20;99.90
7842;DHT22;3966;51.052;13.820;2022-09-25T03:03:31;13.10;99.90
7842;DHT22;3966;51.052;13.820;2022-09-25T03:05:58;13.10;99.90
7842;DHT22;3966;51.052;13.820;2022-09-25T03:08:26;12.90;99.90
7842;DHT22;3966;51.052;13.820;2022-09-25T03:11:16;13.10;99.90
7842;DHT22;3966;51.052;13.820;2022-09-25T03:13:44;13.20;99.90
7842;DHT22;3966;51.052;13.820;2022-09-25T03:18:35;13.40;99.90
7842;DHT22;3966;51.052;13.820;2022-09-25T03:21:02;13.30;99.90
7842;DHT22;3966;51.052;13.820;2022-09-25T03:23:28;13.50;99.90
7842;DHT22;3966;51.052;13.820;2022-09-25T03:25:54;13.40;99.90
7842;DHT22;3966;51.052;13.820;2022-09-25T03:28:20;13.50;99.90
7842;DHT22;3966;51.052;13.820;2022-09-25T03:30:58;13.30;99.90
7842;DHT22;3966;51.052;13.820;2022-09-25T03:33:24;13.30;99.90
7842;DHT22;3966;51.052;13.820;2022-09-25T03:36:01;13.20;99.90
7842;DHT22;3966;51.052;13.820;2022-09-25T03:38:27;13.20;99.90
7842;DHT22;3966;51.052;13.820;2022-09-25T03:40:52;13.10;99.90
7842;DHT22;3966;51.052;13.820;2022-09-25T03:43:17;13.00;99.90
7842;DHT22;3966;51.052;13.820;2022-09-25T03:45:43;12.90;99.90
7842;DHT22;3966;51.052;13.820;2022-09-25T03:48:08;12.90;99.90
7842;DHT22;3966;51.052;13.820;2022-09-25T03:50:34;12.90;99.90
7842;DHT22;3966;51.052;13.820;2022-09-25T03:52:59;13.00;99.90
7842;DHT22;3966;51.052;13.820;2022-09-25T03:55:25;13.00;99.90
7842;DHT22;3966;51.052;13.820;2022-09-25T03:57:51;13.10;99.90
7842;DHT22;3966;51.052;13.820;2022-09-25T04:00:16;13.00;99.90
7842;DHT22;3966;51.052;13.820;2022-09-25T04:02:42;12.90;99.90
7842;DHT22;3966;51.052;13.820;2022-09-25T04:05:08;13.00;99.90
7842;DHT22;3966;51.052;13.820;2022-09-25T04:07:34;13.10;99.90
7842;DHT22;3966;51.052;13.820;2022-09-25T04:10:00;13.20;99.90
7842;DHT22;3966;51.052;13.820;2022-09-25T04:12:25;13.30;99.90
7842;DHT22;3966;51.052;13.820;2022-09-25T04:14:51;13.20;99.90
7842;DHT22;3966;51.052;13.820;2022-09-25T04:17:17;13.20;99.90
7842;DHT22;3966;51.052;13.820;2022-09-25T04:19:42;13.10;99.90
7842;DHT22;3966;51.052;13.820;2022-09-25T04:22:08;13.00;99.90
7842;DHT22;3966;51.052;13.820;2022-09-25T04:24:33;13.20;99.90
7842;DHT22;3966;51.052;13.820;2022-09-25T04:27:20;13.10;99.90
7842;DHT22;3966;51.052;13.820;2022-09-25T04:29:47;13.10;99.90
7842;DHT22;3966;51.052;13.820;2022-09-25T04:32:14;13.00;99.90
7842;DHT22;3966;51.052;13.820;2022-09-25T04:34:58;13.20;99.90
7842;DHT22;3966;51.052;13.820;2022-09-25T04:37:24;13.20;99.90
7842;DHT22;3966;51.052;13.820;2022-09-25T04:39:52;13.30;99.90
7842;DHT22;3966;51.052;13.820;2022-09-25T04:42:18;13.30;99.90
7842;DHT22;3966;51.052;13.820;2022-09-25T04:44:45;13.20;99.90
7842;DHT22;3966;51.052;13.820;2022-09-25T04:47:11;13.10;99.90
7842;DHT22;3966;51.052;13.820;2022-09-25T04:49:37;13.20;99.90
7842;DHT22;3966;51.052;13.820;2022-09-25T04:52:03;13.20;99.90
7842;DHT22;3966;51.052;13.820;2022-09-25T04:54:28;13.20;99.90
7842;DHT22;3966;51.052;13.820;2022-09-25T04:56:54;13.20;99.90
7842;DHT22;3966;51.052;13.820;2022-09-25T04:59:19;13.30;99.90
7842;DHT22;3966;51.052;13.820;2022-09-25T05:01:46;13.30;99.90
7842;DHT22;3966;51.052;13.820;2022-09-25T05:04:12;13.10;99.90
7842;DHT22;3966;51.052;13.820;2022-09-25T05:06:38;13.20;99.90
7842;DHT22;3966;51.052;13.820;2022-09-25T05:09:04;13.30;99.90
7842;DHT22;3966;51.052;13.820;2022-09-25T05:11:29;13.40;99.90
7842;DHT22;3966;51.052;13.820;2022-09-25T05:13:54;13.40;99.90
7842;DHT22;3966;51.052;13.820;2022-09-25T05:16:20;13.20;99.90
7842;DHT22;3966;51.052;13.820;2022-09-25T05:18:45;13.10;99.90
7842;DHT22;3966;51.052;13.820;2022-09-25T05:21:11;13.20;99.90
7842;DHT22;3966;51.052;13.820;2022-09-25T05:23:36;13.30;99.90
7842;DHT22;3966;51.052;13.820;2022-09-25T05:26:02;13.40;99.90
7842;DHT22;3966;51.052;13.820;2022-09-25T05:28:28;13.40;99.90
7842;DHT22;3966;51.052;13.820;2022-09-25T05:30:57;13.40;99.90
7842;DHT22;3966;51.052;13.820;2022-09-25T05:33:23;13.30;99.90
7842;DHT22;3966;51.052;13.820;2022-09-25T05:35:48;13.30;99.90
7842;DHT22;3966;51.052;13.820;2022-09-25T05:38:14;13.30;99.90
7842;DHT22;3966;51.052;13.820;2022-09-25T05:40:39;13.30;99.90
7842;DHT22;3966;51.052;13.820;2022-09-25T05:43:05;13.20;99.90
7842;DHT22;3966;51.052;13.820;2022-09-25T05:45:31;13.20;99.90
7842;DHT22;3966;51.052;13.820;2022-09-25T05:48:03;13.20;99.90
7842;DHT22;3966;51.052;13.820;2022-09-25T05:50:29;13.30;99.90
7842;DHT22;3966;51.052;13.820;2022-09-25T05:52:57;13.00;99.90
7842;DHT22;3966;51.052;13.820;2022-09-25T05:55:23;12.90;99.90
7842;DHT22;3966;51.052;13.820;2022-09-25T05:57:49;13.00;99.90
7842;DHT22;3966;51.052;13.820;2022-09-25T06:00:15;13.30;99.90
7842;DHT22;3966;51.052;13.820;2022-09-25T06:02:40;13.10;99.90
7842;DHT22;3966;51.052;13.820;2022-09-25T06:05:06;13.10;99.90
7842;DHT22;3966;51.052;13.820;2022-09-25T06:07:33;13.10;99.90
7842;DHT22;3966;51.052;13.820;2022-09-25T06:09:59;13.20;99.90
7842;DHT22;3966;51.052;13.820;2022-09-25T06:12:24;13.20;99.90
7842;DHT22;3966;51.052;13.820;2022-09-25T06:14:51;13.40;99.90
7842;DHT22;3966;51.052;13.820;2022-09-25T06:17:17;13.30;99.90
7842;DHT22;3966;51.052;13.820;2022-09-25T06:19:42;13.40;99.90
7842;DHT22;3966;51.052;13.820;2022-09-25T06:22:08;13.60;99.90
7842;DHT22;3966;51.052;13.820;2022-09-25T06:24:33;13.50;99.90
7842;DHT22;3966;51.052;13.820;2022-09-25T06:26:58;13.40;99.90
7842;DHT22;3966;51.052;13.820;2022-09-25T06:29:24;13.60;99.90
7842;DHT22;3966;51.052;13.820;2022-09-25T06:31:51;13.70;99.90
7842;DHT22;3966;51.052;13.820;2022-09-25T06:34:16;13.60;99.90
7842;DHT22;3966;51.052;13.820;2022-09-25T06:36:41;13.70;99.90
7842;DHT22;3966;51.052;13.820;2022-09-25T06:39:07;13.60;99.90
7842;DHT22;3966;51.052;13.820;2022-09-25T06:41:33;13.60;99.90
7842;DHT22;3966;51.052;13.820;2022-09-25T06:43:58;13.70;99.90
7842;DHT22;3966;51.052;13.820;2022-09-25T06:46:24;13.80;99.90
7842;DHT22;3966;51.052;13.820;2022-09-25T06:48:51;13.80;99.90
7842;DHT22;3966;51.052;13.820;2022-09-25T06:51:18;13.90;99.90
7842;DHT22;3966;51.052;13.820;2022-09-25T06:53:44;13.90;99.90
7842;DHT22;3966;51.052;13.820;2022-09-25T06:56:09;14.00;99.90
7842;DHT22;3966;51.052;13.820;2022-09-25T06:58:35;13.90;99.90
7842;DHT22;3966;51.052;13.820;2022-09-25T07:01:00;14.00;99.90
7842;DHT22;3966;51.052;13.820;2022-09-25T07:03:26;13.60;99.90
7842;DHT22;3966;51.052;13.820;2022-09-25T07:08:41;12.70;99.90
7842;DHT22;3966;51.052;13.820;2022-09-25T07:11:11;12.90;99.90
7842;DHT22;3966;51.052;13.820;2022-09-25T07:13:37;12.80;99.90
7842;DHT22;3966;51.052;13.820;2022-09-25T07:16:05;12.50;99.90
7842;DHT22;3966;51.052;13.820;2022-09-25T07:18:31;12.50;99.90
7842;DHT22;3966;51.052;13.820;2022-09-25T07:21:09;12.80;99.90
7842;DHT22;3966;51.052;13.820;2022-09-25T07:23:35;13.00;99.90
7842;DHT22;3966;51.052;13.820;2022-09-25T07:26:18;13.10;99.90
7842;DHT22;3966;51.052;13.820;2022-09-25T07:28:57;13.40;99.90
7842;DHT22;3966;51.052;13.820;2022-09-25T07:31:25;13.60;99.90
7842;DHT22;3966;51.052;13.820;2022-09-25T07:33:50;13.60;99.90
7842;DHT22;3966;51.052;13.820;2022-09-25T07:36:16;13.70;99.90
7842;DHT22;3966;51.052;13.820;2022-09-25T07:38:43;13.80;99.90
7842;DHT22;3966;51.052;13.820;2022-09-25T07:41:10;13.90;99.90
7842;DHT22;3966;51.052;13.820;2022-09-25T07:43:37;14.00;99.90
7842;DHT22;3966;51.052;13.820;2022-09-25T07:46:04;13.90;99.90
7842;DHT22;3966;51.052;13.820;2022-09-25T07:48:30;13.80;99.90
7842;DHT22;3966;51.052;13.820;2022-09-25T07:51:06;13.80;99.90
7842;DHT22;3966;51.052;13.820;2022-09-25T07:53:32;13.90;99.90
7842;DHT22;3966;51.052;13.820;2022-09-25T07:55:58;14.00;99.90
7842;DHT22;3966;51.052;13.820;2022-09-25T07:58:25;14.00;99.90
7842;DHT22;3966;51.052;13.820;2022-09-25T08:00:52;14.10;99.90
7842;DHT22;3966;51.052;13.820;2022-09-25T08:03:18;14.20;99.90
7842;DHT22;3966;51.052;13.820;2022-09-25T08:05:44;14.30;99.90
7842;DHT22;3966;51.052;13.820;2022-09-25T08:08:09;14.30;99.90
7842;DHT22;3966;51.052;13.820;2022-09-25T08:10:35;14.30;99.90
7842;DHT22;3966;51.052;13.820;2022-09-25T08:13:00;14.30;99.90
7842;DHT22;3966;51.052;13.820;2022-09-25T08:15:26;14.40;99.90
7842;DHT22;3966;51.052;13.820;2022-09-25T08:17:51;14.60;99.90
7842;DHT22;3966;51.052;13.820;2022-09-25T08:20:17;14.60;99.90
7842;DHT22;3966;51.052;13.820;2022-09-25T08:22:43;14.80;99.90
7842;DHT22;3966;51.052;13.820;2022-09-25T08:25:09;14.80;99.90
7842;DHT22;3966;51.052;13.820;2022-09-25T08:27:35;14.90;99.90
7842;DHT22;3966;51.052;13.820;2022-09-25T08:30:07;14.90;99.90
7842;DHT22;3966;51.052;13.820;2022-09-25T08:32:34;14.90;99.90
7842;DHT22;3966;51.052;13.820;2022-09-25T08:34:59;14.90;99.90
7842;DHT22;3966;51.052;13.820;2022-09-25T08:37:26;15.00;99.90
7842;DHT22;3966;51.052;13.820;2022-09-25T08:39:51;15.00;99.90
7842;DHT22;3966;51.052;13.820;2022-09-25T08:42:25;15.00;99.90
7842;DHT22;3966;51.052;13.820;2022-09-25T08:44:55;15.00;99.90
7842;DHT22;3966;51.052;13.820;2022-09-25T08:47:40;15.00;99.90
7842;DHT22;3966;51.052;13.820;2022-09-25T08:50:26;15.10;99.90
7842;DHT22;3966;51.052;13.820;2022-09-25T08:53:04;15.00;99.90
7842;DHT22;3966;51.052;13.820;2022-09-25T08:55:33;15.10;99.90
7842;DHT22;3966;51.052;13.820;2022-09-25T08:58:27;15.20;99.90
7842;DHT22;3966;51.052;13.820;2022-09-25T09:00:57;15.20;99.90
7842;DHT22;3966;51.052;13.820;2022-09-25T09:03:24;15.30;99.90
7842;DHT22;3966;51.052;13.820;2022-09-25T09:06:01;15.40;99.90
7842;DHT22;3966;51.052;13.820;2022-09-25T09:08:28;15.50;99.90
7842;DHT22;3966;51.052;13.820;2022-09-25T09:11:07;15.50;99.90
7842;DHT22;3966;51.052;13.820;2022-09-25T09:13:49;15.60;99.90
7842;DHT22;3966;51.052;13.820;2022-09-25T09:16:32;15.50;99.90
7842;DHT22;3966;51.052;13.820;2022-09-25T09:19:02;15.60;99.90
7842;DHT22;3966;51.052;13.820;2022-09-25T09:21:40;15.70;99.90
7842;DHT22;3966;51.052;13.820;2022-09-25T09:24:14;15.70;99.90
7842;DHT22;3966;51.052;13.820;2022-09-25T09:26:56;15.70;99.90
7842;DHT22;3966;51.052;13.820;2022-09-25T09:32:32;15.80;99.90
7842;DHT22;3966;51.052;13.820;2022-09-25T09:37:49;15.90;99.90
7842;DHT22;3966;51.052;13.820;2022-09-25T09:40:34;15.90;99.90
7842;DHT22;3966;51.052;13.820;2022-09-25T09:43:25;15.70;99.90
7842;DHT22;3966;51.052;13.820;2022-09-25T09:46:17;15.80;99.90
7842;DHT22;3966;51.052;13.820;2022-09-25T09:49:08;16.00;99.90
7842;DHT22;3966;51.052;13.820;2022-09-25T09:51:40;16.20;99.90
7842;DHT22;3966;51.052;13.820;2022-09-25T09:54:37;16.10;99.90
7842;DHT22;3966;51.052;13.820;2022-09-25T09:57:09;16.20;99.90
7842;DHT22;3966;51.052;13.820;2022-09-25T10:00:10;16.30;99.90
7842;DHT22;3966;51.052;13.820;2022-09-25T10:02:59;16.30;99.90
7842;DHT22;3966;51.052;13.820;2022-09-25T10:07:53;16.40;99.90
7842;DHT22;3966;51.052;13.820;2022-09-25T10:10:20;16.40;99.90
7842;DHT22;3966;51.052;13.820;2022-09-25T10:12:52;16.60;99.90
7842;DHT22;3966;51.052;13.820;2022-09-25T10:15:48;16.80;99.90
7842;DHT22;3966;51.052;13.820;2022-09-25T10:18:16;17.20;99.90
7842;DHT22;3966;51.052;13.820;2022-09-25T10:20:56;17.30;99.90
7842;DHT22;3966;51.052;13.820;2022-09-25T10:26:24;18.00;99.90
7842;DHT22;3966;51.052;13.820;2022-09-25T10:28:50;17.90;99.90
7842;DHT22;3966;51.052;13.820;2022-09-25T10:31:19;17.40;99.90
7842;DHT22;3966;51.052;13.820;2022-09-25T10:34:05;17.30;99.90
7842;DHT22;3966;51.052;13.820;2022-09-25T10:36:47;17.60;99.90
7842;DHT22;3966;51.052;13.820;2022-09-25T10:39:33;17.50;99.90
7842;DHT22;3966;51.052;13.820;2022-09-25T10:42:00;17.30;99.90
7842;DHT22;3966;51.052;13.820;2022-09-25T10:44:37;17.30;99.90
7842;DHT22;3966;51.052;13.820;2022-09-25T10:55:18;18.40;99.90
7842;DHT22;3966;51.052;13.820;2022-09-25T10:57:45;18.70;99.90
7842;DHT22;3966;51.052;13.820;2022-09-25T11:00:20;18.90;99.90
7842;DHT22;3966;51.052;13.820;2022-09-25T11:02:46;18.80;99.90
7842;DHT22;3966;51.052;13.820;2022-09-25T11:05:17;19.40;99.90
7842;DHT22;3966;51.052;13.820;2022-09-25T11:07:48;19.80;99.90
7842;DHT22;3966;51.052;13.820;2022-09-25T11:10:25;19.70;99.90
7842;DHT22;3966;51.052;13.820;2022-09-25T11:12:51;19.40;99.90
7842;DHT22;3966;51.052;13.820;2022-09-25T11:15:21;18.80;99.90
7842;DHT22;3966;51.052;13.820;2022-09-25T11:17:50;18.50;99.90
7842;DHT22;3966;51.052;13.820;2022-09-25T11:28:38;18.90;99.90
7842;DHT22;3966;51.052;13.820;2022-09-25T11:31:20;18.90;99.90
7842;DHT22;3966;51.052;13.820;2022-09-25T11:39:24;20.90;99.90
7842;DHT22;3966;51.052;13.820;2022-09-25T11:42:20;20.90;99.90
7842;DHT22;3966;51.052;13.820;2022-09-25T11:45:06;21.20;99.90
7842;DHT22;3966;51.052;13.820;2022-09-25T11:47:59;21.80;99.90
7842;DHT22;3966;51.052;13.820;2022-09-25T11:56:34;22.30;99.90
7842;DHT22;3966;51.052;13.820;2022-09-25T12:05:19;22.90;99.90
7842;DHT22;3966;51.052;13.820;2022-09-25T12:08:17;22.90;99.90
7842;DHT22;3966;51.052;13.820;2022-09-25T12:16:48;22.70;99.70
7842;DHT22;3966;51.052;13.820;2022-09-25T12:19:41;22.90;99.90
7842;DHT22;3966;51.052;13.820;2022-09-25T12:25:18;23.50;98.00
7842;DHT22;3966;51.052;13.820;2022-09-25T12:28:05;23.50;96.70
7842;DHT22;3966;51.052;13.820;2022-09-25T12:30:42;23.40;96.20
7842;DHT22;3966;51.052;13.820;2022-09-25T12:33:25;23.70;95.40
7842;DHT22;3966;51.052;13.820;2022-09-25T12:35:58;23.60;95.20
7842;DHT22;3966;51.052;13.820;2022-09-25T12:41:46;23.20;95.30
7842;DHT22;3966;51.052;13.820;2022-09-25T12:46:56;22.90;96.20
7842;DHT22;3966;51.052;13.820;2022-09-25T12:49:58;23.10;96.50
7842;DHT22;3966;51.052;13.820;2022-09-25T12:52:33;23.50;95.80
7842;DHT22;3966;51.052;13.820;2022-09-25T12:55:15;23.20;93.80
7842;DHT22;3966;51.052;13.820;2022-09-25T13:00:32;23.00;96.30
7842;DHT22;3966;51.052;13.820;2022-09-25T13:03:14;23.50;95.30
7842;DHT22;3966;51.052;13.820;2022-09-25T13:06:08;23.50;93.80
7842;DHT22;3966;51.052;13.820;2022-09-25T13:08:42;22.80;93.80
7842;DHT22;3966;51.052;13.820;2022-09-25T13:11:23;22.40;95.90
7842;DHT22;3966;51.052;13.820;2022-09-25T13:13:55;23.50;94.60
7842;DHT22;3966;51.052;13.820;2022-09-25T13:16:22;23.80;94.10
7842;DHT22;3966;51.052;13.820;2022-09-25T13:19:08;24.30;92.60
7842;DHT22;3966;51.052;13.820;2022-09-25T13:21:37;24.00;92.40
7842;DHT22;3966;51.052;13.820;2022-09-25T13:24:05;24.50;91.60
7842;DHT22;3966;51.052;13.820;2022-09-25T13:26:45;25.00;90.30
7842;DHT22;3966;51.052;13.820;2022-09-25T13:29:26;25.40;87.90
7842;DHT22;3966;51.052;13.820;2022-09-25T13:32:14;25.30;88.10
7842;DHT22;3966;51.052;13.820;2022-09-25T13:34:41;24.40;89.10
7842;DHT22;3966;51.052;13.820;2022-09-25T13:37:12;25.40;85.90
7842;DHT22;3966;51.052;13.820;2022-09-25T13:39:44;25.50;84.90
7842;DHT22;3966;51.052;13.820;2022-09-25T13:45:02;26.30;82.40
7842;DHT22;3966;51.052;13.820;2022-09-25T13:47:31;26.90;78.50
7842;DHT22;3966;51.052;13.820;2022-09-25T14:00:23;26.20;75.30
7842;DHT22;3966;51.052;13.820;2022-09-25T14:02:51;26.00;77.10
7842;DHT22;3966;51.052;13.820;2022-09-25T14:05:20;26.00;77.10
7842;DHT22;3966;51.052;13.820;2022-09-25T14:07:51;25.60;78.00
7842;DHT22;3966;51.052;13.820;2022-09-25T14:10:19;25.80;82.00
7842;DHT22;3966;51.052;13.820;2022-09-25T14:12:47;25.80;84.50
7842;DHT22;3966;51.052;13.820;2022-09-25T14:15:27;25.50;87.80
7842;DHT22;3966;51.052;13.820;2022-09-25T14:17:55;25.50;89.90
7842;DHT22;3966;51.052;13.820;2022-09-25T14:20:30;24.70;90.60
7842;DHT22;3966;51.052;13.820;2022-09-25T14:22:59;23.40;93.90
7842;DHT22;3966;51.052;13.820;2022-09-25T14:25:29;23.80;94.90
7842;DHT22;3966;51.052;13.820;2022-09-25T14:27:59;23.60;95.80
7842;DHT22;3966;51.052;13.820;2022-09-25T14:30:25;23.70;96.00
7842;DHT22;3966;51.052;13.820;2022-09-25T14:36:36;24.10;95.80
7842;DHT22;3966;51.052;13.820;2022-09-25T14:39:32;24.00;93.80
7842;DHT22;3966;51.052;13.820;2022-09-25T14:42:22;23.80;95.40
7842;DHT22;3966;51.052;13.820;2022-09-25T14:47:47;23.60;95.40
7842;DHT22;3966;51.052;13.820;2022-09-25T14:50:26;24.30;95.10
7842;DHT22;3966;51.052;13.820;2022-09-25T14:52:55;24.70;93.80
7842;DHT22;3966;51.052;13.820;2022-09-25T14:55:24;25.10;93.50
7842;DHT22;3966;51.052;13.820;2022-09-25T14:57:51;25.40;92.30
7842;DHT22;3966;51.052;13.820;2022-09-25T15:00:18;25.80;91.40
7842;DHT22;3966;51.052;13.820;2022-09-25T15:02:48;25.90;90.80
7842;DHT22;3966;51.052;13.820;2022-09-25T15:05:35;25.60;90.70
7842;DHT22;3966;51.052;13.820;2022-09-25T15:08:34;25.50;90.90
7842;DHT22;3966;51.052;13.820;2022-09-25T15:11:09;24.70;92.10
7842;DHT22;3966;51.052;13.820;2022-09-25T15:13:36;24.20;92.90
7842;DHT22;3966;51.052;13.820;2022-09-25T15:16:02;23.50;94.40
7842;DHT22;3966;51.052;13.820;2022-09-25T15:18:54;23.30;95.60
7842;DHT22;3966;51.052;13.820;2022-09-25T15:21:27;23.00;96.20
7842;DHT22;3966;51.052;13.820;2022-09-25T15:24:03;22.70;96.90
7842;DHT22;3966;51.052;13.820;2022-09-25T15:26:30;22.60;98.00
7842;DHT22;3966;51.052;13.820;2022-09-25T15:28:56;22.40;98.70
7842;DHT22;3966;51.052;13.820;2022-09-25T15:31:22;22.30;99.80
7842;DHT22;3966;51.052;13.820;2022-09-25T15:34:03;22.20;99.90
7842;DHT22;3966;51.052;13.820;2022-09-25T15:36:33;22.00;99.90
7842;DHT22;3966;51.052;13.820;2022-09-25T15:39:08;22.10;99.90
7842;DHT22;3966;51.052;13.820;2022-09-25T15:41:36;21.80;99.90
7842;DHT22;3966;51.052;13.820;2022-09-25T15:44:22;21.90;99.90
7842;DHT22;3966;51.052;13.820;2022-09-25T15:46:50;22.30;99.90
7842;DHT22;3966;51.052;13.820;2022-09-25T15:49:31;22.20;99.90
7842;DHT22;3966;51.052;13.820;2022-09-25T15:52:00;22.20;99.90
7842;DHT22;3966;51.052;13.820;2022-09-25T15:54:33;21.80;99.90
7842;DHT22;3966;51.052;13.820;2022-09-25T15:57:02;21.50;99.90
7842;DHT22;3966;51.052;13.820;2022-09-25T15:59:43;21.20;99.90
7842;DHT22;3966;51.052;13.820;2022-09-25T16:03:23;21.10;99.90
7842;DHT22;3966;51.052;13.820;2022-09-25T16:06:13;20.50;99.90
7842;DHT22;3966;51.052;13.820;2022-09-25T16:08:39;20.70;99.90
7842;DHT22;3966;51.052;13.820;2022-09-25T16:11:20;20.70;99.90
7842;DHT22;3966;51.052;13.820;2022-09-25T16:13:49;20.60;99.90
7842;DHT22;3966;51.052;13.820;2022-09-25T16:16:27;20.30;99.90
7842;DHT22;3966;51.052;13.820;2022-09-25T16:18:58;20.10;99.90
7842;DHT22;3966;51.052;13.820;2022-09-25T16:21:28;20.00;99.90
7842;DHT22;3966;51.052;13.820;2022-09-25T16:24:03;19.90;99.90
7842;DHT22;3966;51.052;13.820;2022-09-25T16:26:38;19.80;99.90
7842;DHT22;3966;51.052;13.820;2022-09-25T16:29:20;19.80;99.90
7842;DHT22;3966;51.052;13.820;2022-09-25T16:31:46;19.70;99.90
7842;DHT22;3966;51.052;13.820;2022-09-25T16:34:28;19.60;99.90
7842;DHT22;3966;51.052;13.820;2022-09-25T16:36:56;19.40;99.90
7842;DHT22;3966;51.052;13.820;2022-09-25T16:39:26;19.00;99.90
7842;DHT22;3966;51.052;13.820;2022-09-25T16:41:52;19.00;99.90
7842;DHT22;3966;51.052;13.820;2022-09-25T16:47:04;18.80;99.90
7842;DHT22;3966;51.052;13.820;2022-09-25T16:49:32;18.60;99.90
7842;DHT22;3966;51.052;13.820;2022-09-25T16:51:59;18.90;99.90
7842;DHT22;3966;51.052;13.820;2022-09-25T16:54:26;19.10;99.90
7842;DHT22;3966;51.052;13.820;2022-09-25T16:56:55;18.90;99.90
7842;DHT22;3966;51.052;13.820;2022-09-25T16:59:24;18.60;99.90
7842;DHT22;3966;51.052;13.820;2022-09-25T17:01:51;18.50;99.90
7842;DHT22;3966;51.052;13.820;2022-09-25T17:04:22;18.30;99.90
7842;DHT22;3966;51.052;13.820;2022-09-25T17:06:48;18.30;99.90
7842;DHT22;3966;51.052;13.820;2022-09-25T17:09:15;18.30;99.90
7842;DHT22;3966;51.052;13.820;2022-09-25T17:11:44;18.50;99.90
7842;DHT22;3966;51.052;13.820;2022-09-25T17:14:24;18.60;99.90
7842;DHT22;3966;51.052;13.820;2022-09-25T17:16:51;18.50;99.90
7842;DHT22;3966;51.052;13.820;2022-09-25T17:19:17;18.40;99.90
7842;DHT22;3966;51.052;13.820;2022-09-25T17:21:45;18.10;99.90
7842;DHT22;3966;51.052;13.820;2022-09-25T17:24:14;18.00;99.90
7842;DHT22;3966;51.052;13.820;2022-09-25T17:26:41;17.90;99.90
7842;DHT22;3966;51.052;13.820;2022-09-25T17:29:07;17.50;99.90
7842;DHT22;3966;51.052;13.820;2022-09-25T17:31:33;17.60;99.90
7842;DHT22;3966;51.052;13.820;2022-09-25T17:33:59;17.60;99.90
7842;DHT22;3966;51.052;13.820;2022-09-25T17:36:25;17.60;99.90
7842;DHT22;3966;51.052;13.820;2022-09-25T17:38:51;17.60;99.90
7842;DHT22;3966;51.052;13.820;2022-09-25T17:41:19;17.60;99.90
7842;DHT22;3966;51.052;13.820;2022-09-25T17:43:46;17.50;99.90
7842;DHT22;3966;51.052;13.820;2022-09-25T17:46:12;17.40;99.90
7842;DHT22;3966;51.052;13.820;2022-09-25T17:48:43;17.20;99.90
7842;DHT22;3966;51.052;13.820;2022-09-25T17:51:26;16.90;99.90
7842;DHT22;3966;51.052;13.820;2022-09-25T17:53:51;17.00;99.90
7842;DHT22;3966;51.052;13.820;2022-09-25T17:56:18;17.20;99.90
7842;DHT22;3966;51.052;13.820;2022-09-25T17:58:44;17.10;99.90
7842;DHT22;3966;51.052;13.820;2022-09-25T18:01:29;17.20;99.90